sensor_id;sensor_type;location;lat;lon;timestamp;temperature;humidity
46898;DHT22;32646;50.958;6.258;2023-04-06T00:00:11;1.20;99.90
46898;DHT22;32646;50.958;6.258;2023-04-06T00:02:37;1.10;99.90
46898;DHT22;32646;50.958;6.258;2023-04-06T00:05:04;1.20;99.90
46898;DHT22;32646;50.958;6.258;2023-04-06T00:07:31;1.30;99.90
46898;DHT22;32646;50.958;6.258;2023-04-06T00:09:57;1.30;99.90
46898;DHT22;32646;50.958;6.258;2023-04-06T00:12:24;1.30;99.90
46898;DHT22;32646;50.958;6.258;2023-04-06T00:14:50;1.40;99.90
46898;DHT22;32646;50.958;6.258;2023-04-06T00:17:17;1.40;99.90
46898;DHT22;32646;50.958;6.258;2023-04-06T00:19:44;1.40;99.90
46898;DHT22;32646;50.958;6.258;2023-04-06T00:22:10;1.40;99.90
46898;DHT22;32646;50.958;6.258;2023-04-06T00:24:37;1.30;99.90
46898;DHT22;32646;50.958;6.258;2023-04-06T00:27:03;1.30;99.90
46898;DHT22;32646;50.958;6.258;2023-04-06T00:29:30;1.10;99.90
46898;DHT22;32646;50.958;6.258;2023-04-06T00:31:57;1.10;99.90
46898;DHT22;32646;50.958;6.258;2023-04-06T00:34:23;1.00;99.90
46898;DHT22;32646;50.958;6.258;2023-04-06T00:36:50;0.90;99.90
46898;DHT22;32646;50.958;6.258;2023-04-06T00:39:16;0.80;99.90
46898;DHT22;32646;50.958;6.258;2023-04-06T00:41:50;0.80;99.90
46898;DHT22;32646;50.958;6.258;2023-04-06T00:44:17;0.80;99.90
46898;DHT22;32646;50.958;6.258;2023-04-06T00:46:44;0.90;99.90
46898;DHT22;32646;50.958;6.258;2023-04-06T00:49:11;0.90;99.90
46898;DHT22;32646;50.958;6.258;2023-04-06T00:51:37;0.80;99.90
46898;DHT22;32646;50.958;6.258;2023-04-06T00:54:04;1.00;99.90
46898;DHT22;32646;50.958;6.258;2023-04-06T00:56:31;1.00;99.90
46898;DHT22;32646;50.958;6.258;2023-04-06T00:58:58;1.00;99.90
46898;DHT22;32646;50.958;6.258;2023-04-06T01:01:25;0.80;99.90
46898;DHT22;32646;50.958;6.258;2023-04-06T01:03:52;0.80;99.90
46898;DHT22;32646;50.958;6.258;2023-04-06T01:06:18;0.80;99.90
46898;DHT22;32646;50.958;6.258;2023-04-06T01:08:45;0.80;99.90
46898;DHT22;32646;50.958;6.258;2023-04-06T01:11:11;0.70;99.90
46898;DHT22;32646;50.958;6.258;2023-04-06T01:13:38;0.70;99.90
46898;DHT22;32646;50.958;6.258;2023-04-06T01:16:05;0.60;99.90
46898;DHT22;32646;50.958;6.258;2023-04-06T01:18:31;0.50;99.90
46898;DHT22;32646;50.958;6.258;2023-04-06T01:20:58;0.40;99.90
46898;DHT22;32646;50.958;6.258;2023-04-06T01:23:25;0.40;99.90
46898;DHT22;32646;50.958;6.258;2023-04-06T01:25:51;0.30;99.90
46898;DHT22;32646;50.958;6.258;2023-04-06T01:28:18;0.40;99.90
46898;DHT22;32646;50.958;6.258;2023-04-06T01:30:44;0.40;99.90
46898;DHT22;32646;50.958;6.258;2023-04-06T01:33:11;0.40;99.90
46898;DHT22;32646;50.958;6.258;2023-04-06T01:35:37;0.40;99.90
46898;DHT22;32646;50.958;6.258;2023-04-06T01:38:04;0.40;99.90
46898;DHT22;32646;50.958;6.258;2023-04-06T01:40:31;0.40;99.90
46898;DHT22;32646;50.958;6.258;2023-04-06T01:42:57;0.40;99.90
46898;DHT22;32646;50.958;6.258;2023-04-06T01:45:24;0.30;99.90
46898;DHT22;32646;50.958;6.258;2023-04-06T01:47:50;0.20;99.90
46898;DHT22;32646;50.958;6.258;2023-04-06T01:50:17;0.10;99.90
46898;DHT22;32646;50.958;6.258;2023-04-06T01:52:43;0.10;99.90
46898;DHT22;32646;50.958;6.258;2023-04-06T01:55:10;0.00;99.90
46898;DHT22;32646;50.958;6.258;2023-04-06T01:57:36;0.00;99.90
46898;DHT22;32646;50.958;6.258;2023-04-06T02:00:04;0.10;99.90
46898;DHT22;32646;50.958;6.258;2023-04-06T02:02:30;0.10;99.90
46898;DHT22;32646;50.958;6.258;2023-04-06T02:04:57;0.10;99.90
46898;DHT22;32646;50.958;6.258;2023-04-06T02:07:24;0.00;99.90
46898;DHT22;32646;50.958;6.258;2023-04-06T02:09:54;-0.10;99.90
46898;DHT22;32646;50.958;6.258;2023-04-06T02:12:21;-0.10;99.90
46898;DHT22;32646;50.958;6.258;2023-04-06T02:14:47;-0.30;99.90
46898;DHT22;32646;50.958;6.258;2023-04-06T02:17:14;-0.30;99.90
46898;DHT22;32646;50.958;6.258;2023-04-06T02:19:40;-0.20;99.90
46898;DHT22;32646;50.958;6.258;2023-04-06T02:22:07;-0.20;99.90
46898;DHT22;32646;50.958;6.258;2023-04-06T02:24:33;-0.10;99.90
46898;DHT22;32646;50.958;6.258;2023-04-06T02:27:00;-0.10;99.90
46898;DHT22;32646;50.958;6.258;2023-04-06T02:29:26;-0.20;99.90
46898;DHT22;32646;50.958;6.258;2023-04-06T02:31:53;-0.10;99.90
46898;DHT22;32646;50.958;6.258;2023-04-06T02:34:20;-0.20;99.90
46898;DHT22;32646;50.958;6.258;2023-04-06T02:36:47;-0.30;99.90
46898;DHT22;32646;50.958;6.258;2023-04-06T02:39:13;-0.20;99.90
46898;DHT22;32646;50.958;6.258;2023-04-06T02:41:40;-0.30;99.90
46898;DHT22;32646;50.958;6.258;2023-04-06T02:44:08;-0.40;99.90
46898;DHT22;32646;50.958;6.258;2023-04-06T02:46:34;-0.50;99.90
46898;DHT22;32646;50.958;6.258;2023-04-06T02:49:01;-0.60;99.90
46898;DHT22;32646;50.958;6.258;2023-04-06T02:51:27;-0.70;99.90
46898;DHT22;32646;50.958;6.258;2023-04-06T02:53:54;-0.70;99.90
46898;DHT22;32646;50.958;6.258;2023-04-06T02:56:21;-0.70;99.90
46898;DHT22;32646;50.958;6.258;2023-04-06T02:58:47;-0.70;99.90
46898;DHT22;32646;50.958;6.258;2023-04-06T03:01:14;-0.80;99.90
46898;DHT22;32646;50.958;6.258;2023-04-06T03:03:40;-0.70;99.90
46898;DHT22;32646;50.958;6.258;2023-04-06T03:06:07;-0.70;99.90
46898;DHT22;32646;50.958;6.258;2023-04-06T03:08:34;-0.70;99.90
46898;DHT22;32646;50.958;6.258;2023-04-06T03:11:00;-0.70;99.90
46898;DHT22;32646;50.958;6.258;2023-04-06T03:13:27;-0.70;99.90
46898;DHT22;32646;50.958;6.258;2023-04-06T03:15:54;-0.80;99.90
46898;DHT22;32646;50.958;6.258;2023-04-06T03:18:24;-0.70;99.90
46898;DHT22;32646;50.958;6.258;2023-04-06T03:20:51;-0.80;99.90
46898;DHT22;32646;50.958;6.258;2023-04-06T03:23:18;-0.70;99.90
46898;DHT22;32646;50.958;6.258;2023-04-06T03:25:44;-0.80;99.90
46898;DHT22;32646;50.958;6.258;2023-04-06T03:28:11;-0.70;99.90
46898;DHT22;32646;50.958;6.258;2023-04-06T03:30:37;-0.60;99.90
46898;DHT22;32646;50.958;6.258;2023-04-06T03:33:04;-0.60;99.90
46898;DHT22;32646;50.958;6.258;2023-04-06T03:35:31;-0.50;99.90
46898;DHT22;32646;50.958;6.258;2023-04-06T03:37:57;-0.50;99.90
46898;DHT22;32646;50.958;6.258;2023-04-06T03:40:27;-0.50;99.90
46898;DHT22;32646;50.958;6.258;2023-04-06T03:42:56;-0.40;99.90
46898;DHT22;32646;50.958;6.258;2023-04-06T03:45:23;-0.50;99.90
46898;DHT22;32646;50.958;6.258;2023-04-06T03:47:50;-0.50;99.90
46898;DHT22;32646;50.958;6.258;2023-04-06T03:50:16;-0.50;99.90
46898;DHT22;32646;50.958;6.258;2023-04-06T03:52:43;-0.60;99.90
46898;DHT22;32646;50.958;6.258;2023-04-06T03:55:09;-0.60;99.90
46898;DHT22;32646;50.958;6.258;2023-04-06T03:57:36;-0.50;99.90
46898;DHT22;32646;50.958;6.258;2023-04-06T04:00:03;-0.40;99.90
46898;DHT22;32646;50.958;6.258;2023-04-06T04:02:29;-0.30;99.90
46898;DHT22;32646;50.958;6.258;2023-04-06T04:04:56;-0.40;99.90
46898;DHT22;32646;50.958;6.258;2023-04-06T04:07:23;-0.50;99.90
46898;DHT22;32646;50.958;6.258;2023-04-06T04:09:49;-0.50;99.90
46898;DHT22;32646;50.958;6.258;2023-04-06T04:12:16;-0.50;99.90
46898;DHT22;32646;50.958;6.258;2023-04-06T04:14:42;-0.60;99.90
46898;DHT22;32646;50.958;6.258;2023-04-06T04:17:09;-0.50;99.90
46898;DHT22;32646;50.958;6.258;2023-04-06T04:19:36;-0.40;99.90
46898;DHT22;32646;50.958;6.258;2023-04-06T04:22:02;-0.30;99.90
46898;DHT22;32646;50.958;6.258;2023-04-06T04:24:29;-0.30;99.90
46898;DHT22;32646;50.958;6.258;2023-04-06T04:26:55;-0.20;99.90
46898;DHT22;32646;50.958;6.258;2023-04-06T04:29:22;-0.20;99.90
46898;DHT22;32646;50.958;6.258;2023-04-06T04:31:49;-0.10;99.90
46898;DHT22;32646;50.958;6.258;2023-04-06T04:34:16;-0.20;99.90
46898;DHT22;32646;50.958;6.258;2023-04-06T04:36:42;-0.30;99.90
46898;DHT22;32646;50.958;6.258;2023-04-06T04:39:09;-0.30;99.90
46898;DHT22;32646;50.958;6.258;2023-04-06T04:41:35;-0.30;99.90
46898;DHT22;32646;50.958;6.258;2023-04-06T04:44:02;-0.20;99.90
46898;DHT22;32646;50.958;6.258;2023-04-06T04:46:28;-0.20;99.90
46898;DHT22;32646;50.958;6.258;2023-04-06T04:48:55;0.00;99.90
46898;DHT22;32646;50.958;6.258;2023-04-06T04:51:22;0.10;99.90
46898;DHT22;32646;50.958;6.258;2023-04-06T04:53:48;0.20;99.90
46898;DHT22;32646;50.958;6.258;2023-04-06T04:56:15;0.20;99.90
46898;DHT22;32646;50.958;6.258;2023-04-06T04:58:41;0.20;99.90
46898;DHT22;32646;50.958;6.258;2023-04-06T05:01:08;0.20;99.90
46898;DHT22;32646;50.958;6.258;2023-04-06T05:03:36;0.30;99.90
46898;DHT22;32646;50.958;6.258;2023-04-06T05:06:03;0.30;99.90
46898;DHT22;32646;50.958;6.258;2023-04-06T05:08:29;0.30;99.90
46898;DHT22;32646;50.958;6.258;2023-04-06T05:10:56;0.30;99.90
46898;DHT22;32646;50.958;6.258;2023-04-06T05:13:23;0.30;99.90
46898;DHT22;32646;50.958;6.258;2023-04-06T05:15:49;0.30;99.90
46898;DHT22;32646;50.958;6.258;2023-04-06T05:18:16;0.40;99.90
46898;DHT22;32646;50.958;6.258;2023-04-06T05:20:43;0.50;99.90
46898;DHT22;32646;50.958;6.258;2023-04-06T05:23:09;0.50;99.90
46898;DHT22;32646;50.958;6.258;2023-04-06T05:25:36;0.60;99.90
46898;DHT22;32646;50.958;6.258;2023-04-06T05:28:02;0.60;99.90
46898;DHT22;32646;50.958;6.258;2023-04-06T05:30:29;0.60;99.90
46898;DHT22;32646;50.958;6.258;2023-04-06T05:32:56;0.80;99.90
46898;DHT22;32646;50.958;6.258;2023-04-06T05:35:22;0.90;99.90
46898;DHT22;32646;50.958;6.258;2023-04-06T05:37:49;0.90;99.90
46898;DHT22;32646;50.958;6.258;2023-04-06T05:40:16;1.00;99.90
46898;DHT22;32646;50.958;6.258;2023-04-06T05:42:42;1.00;99.90
46898;DHT22;32646;50.958;6.258;2023-04-06T05:45:10;1.10;99.90
46898;DHT22;32646;50.958;6.258;2023-04-06T05:47:37;1.20;99.90
46898;DHT22;32646;50.958;6.258;2023-04-06T05:50:04;1.30;99.90
46898;DHT22;32646;50.958;6.258;2023-04-06T05:52:31;1.30;99.90
46898;DHT22;32646;50.958;6.258;2023-04-06T05:54:57;1.40;99.90
46898;DHT22;32646;50.958;6.258;2023-04-06T05:57:24;1.50;99.90
46898;DHT22;32646;50.958;6.258;2023-04-06T05:59:50;1.60;99.90
46898;DHT22;32646;50.958;6.258;2023-04-06T06:02:17;1.70;99.90
46898;DHT22;32646;50.958;6.258;2023-04-06T06:04:44;1.80;99.90
46898;DHT22;32646;50.958;6.258;2023-04-06T06:07:10;1.90;99.90
46898;DHT22;32646;50.958;6.258;2023-04-06T06:09:37;2.10;99.90
46898;DHT22;32646;50.958;6.258;2023-04-06T06:12:03;2.20;99.90
46898;DHT22;32646;50.958;6.258;2023-04-06T06:14:30;2.30;99.90
46898;DHT22;32646;50.958;6.258;2023-04-06T06:16:57;2.50;99.90
46898;DHT22;32646;50.958;6.258;2023-04-06T06:19:23;2.50;99.90
46898;DHT22;32646;50.958;6.258;2023-04-06T06:21:50;2.60;99.90
46898;DHT22;32646;50.958;6.258;2023-04-06T06:24:16;2.70;99.90
46898;DHT22;32646;50.958;6.258;2023-04-06T06:26:43;2.80;99.90
46898;DHT22;32646;50.958;6.258;2023-04-06T06:29:09;2.90;99.90
46898;DHT22;32646;50.958;6.258;2023-04-06T06:31:36;3.00;99.90
46898;DHT22;32646;50.958;6.258;2023-04-06T06:34:03;3.10;99.90
46898;DHT22;32646;50.958;6.258;2023-04-06T06:36:29;3.10;99.90
46898;DHT22;32646;50.958;6.258;2023-04-06T06:38:56;3.20;99.90
46898;DHT22;32646;50.958;6.258;2023-04-06T06:41:22;3.30;99.90
46898;DHT22;32646;50.958;6.258;2023-04-06T06:43:49;3.40;99.90
46898;DHT22;32646;50.958;6.258;2023-04-06T06:46:15;3.60;99.90
46898;DHT22;32646;50.958;6.258;2023-04-06T06:48:42;3.70;99.90
46898;DHT22;32646;50.958;6.258;2023-04-06T06:51:09;3.80;99.90
46898;DHT22;32646;50.958;6.258;2023-04-06T06:53:35;4.00;99.90
46898;DHT22;32646;50.958;6.258;2023-04-06T06:56:02;4.20;99.90
46898;DHT22;32646;50.958;6.258;2023-04-06T06:58:28;4.40;99.90
46898;DHT22;32646;50.958;6.258;2023-04-06T07:00:58;4.40;99.90
46898;DHT22;32646;50.958;6.258;2023-04-06T07:03:25;4.50;99.90
46898;DHT22;32646;50.958;6.258;2023-04-06T07:05:52;4.50;99.90
46898;DHT22;32646;50.958;6.258;2023-04-06T07:08:20;4.70;99.90
46898;DHT22;32646;50.958;6.258;2023-04-06T07:10:47;4.80;99.90
46898;DHT22;32646;50.958;6.258;2023-04-06T07:13:14;5.00;99.90
46898;DHT22;32646;50.958;6.258;2023-04-06T07:15:41;5.20;99.90
46898;DHT22;32646;50.958;6.258;2023-04-06T07:18:07;5.30;99.90
46898;DHT22;32646;50.958;6.258;2023-04-06T07:20:34;5.50;99.90
46898;DHT22;32646;50.958;6.258;2023-04-06T07:23:01;5.50;99.90
46898;DHT22;32646;50.958;6.258;2023-04-06T07:25:27;5.60;99.90
46898;DHT22;32646;50.958;6.258;2023-04-06T07:27:54;5.60;99.90
46898;DHT22;32646;50.958;6.258;2023-04-06T07:30:20;5.70;99.90
46898;DHT22;32646;50.958;6.258;2023-04-06T07:32:48;6.00;99.90
46898;DHT22;32646;50.958;6.258;2023-04-06T07:35:15;6.10;99.90
46898;DHT22;32646;50.958;6.258;2023-04-06T07:37:41;6.20;99.90
46898;DHT22;32646;50.958;6.258;2023-04-06T07:40:08;6.40;99.90
46898;DHT22;32646;50.958;6.258;2023-04-06T07:42:35;6.50;99.90
46898;DHT22;32646;50.958;6.258;2023-04-06T07:45:01;6.60;99.90
46898;DHT22;32646;50.958;6.258;2023-04-06T07:47:28;6.70;99.90
46898;DHT22;32646;50.958;6.258;2023-04-06T07:49:55;6.80;99.90
46898;DHT22;32646;50.958;6.258;2023-04-06T07:52:21;7.00;99.90
46898;DHT22;32646;50.958;6.258;2023-04-06T07:54:48;7.10;99.90
46898;DHT22;32646;50.958;6.258;2023-04-06T07:57:15;7.20;99.90
46898;DHT22;32646;50.958;6.258;2023-04-06T07:59:41;7.40;99.90
46898;DHT22;32646;50.958;6.258;2023-04-06T08:02:08;7.60;99.90
46898;DHT22;32646;50.958;6.258;2023-04-06T08:04:35;7.60;99.90
46898;DHT22;32646;50.958;6.258;2023-04-06T08:07:02;7.70;99.90
46898;DHT22;32646;50.958;6.258;2023-04-06T08:09:29;7.70;99.90
46898;DHT22;32646;50.958;6.258;2023-04-06T08:11:55;7.80;99.90
46898;DHT22;32646;50.958;6.258;2023-04-06T08:14:22;7.80;99.90
46898;DHT22;32646;50.958;6.258;2023-04-06T08:16:48;7.90;99.90
46898;DHT22;32646;50.958;6.258;2023-04-06T08:19:15;7.90;99.90
46898;DHT22;32646;50.958;6.258;2023-04-06T08:21:41;8.00;99.90
46898;DHT22;32646;50.958;6.258;2023-04-06T08:24:08;8.30;99.90
46898;DHT22;32646;50.958;6.258;2023-04-06T08:26:35;8.30;99.90
46898;DHT22;32646;50.958;6.258;2023-04-06T08:29:02;8.30;99.90
46898;DHT22;32646;50.958;6.258;2023-04-06T08:31:28;8.30;99.90
46898;DHT22;32646;50.958;6.258;2023-04-06T08:33:55;8.60;99.90
46898;DHT22;32646;50.958;6.258;2023-04-06T08:36:22;8.80;99.90
46898;DHT22;32646;50.958;6.258;2023-04-06T08:38:49;9.00;99.90
46898;DHT22;32646;50.958;6.258;2023-04-06T08:41:16;9.00;99.90
46898;DHT22;32646;50.958;6.258;2023-04-06T08:43:52;9.00;99.90
46898;DHT22;32646;50.958;6.258;2023-04-06T08:46:21;9.10;99.90
46898;DHT22;32646;50.958;6.258;2023-04-06T08:48:48;9.20;99.90
46898;DHT22;32646;50.958;6.258;2023-04-06T08:51:15;9.10;99.90
46898;DHT22;32646;50.958;6.258;2023-04-06T08:53:41;9.10;99.90
46898;DHT22;32646;50.958;6.258;2023-04-06T08:56:09;9.20;99.90
46898;DHT22;32646;50.958;6.258;2023-04-06T08:58:39;9.40;99.90
46898;DHT22;32646;50.958;6.258;2023-04-06T09:01:08;9.50;99.90
46898;DHT22;32646;50.958;6.258;2023-04-06T09:03:37;9.60;99.90
46898;DHT22;32646;50.958;6.258;2023-04-06T09:06:05;9.70;99.90
46898;DHT22;32646;50.958;6.258;2023-04-06T09:08:33;9.70;99.90
46898;DHT22;32646;50.958;6.258;2023-04-06T09:11:03;9.70;99.90
46898;DHT22;32646;50.958;6.258;2023-04-06T09:13:30;9.90;99.90
46898;DHT22;32646;50.958;6.258;2023-04-06T09:16:04;10.00;99.90
46898;DHT22;32646;50.958;6.258;2023-04-06T09:18:32;10.00;99.90
46898;DHT22;32646;50.958;6.258;2023-04-06T09:21:03;10.20;99.90
46898;DHT22;32646;50.958;6.258;2023-04-06T09:23:31;10.20;99.90
46898;DHT22;32646;50.958;6.258;2023-04-06T09:26:09;10.70;99.90
46898;DHT22;32646;50.958;6.258;2023-04-06T09:28:51;11.20;98.80
46898;DHT22;32646;50.958;6.258;2023-04-06T09:31:25;11.40;96.90
46898;DHT22;32646;50.958;6.258;2023-04-06T09:33:53;11.40;91.10
46898;DHT22;32646;50.958;6.258;2023-04-06T09:36:28;11.50;78.80
46898;DHT22;32646;50.958;6.258;2023-04-06T09:38:57;11.70;77.10
46898;DHT22;32646;50.958;6.258;2023-04-06T09:41:32;11.60;76.80
46898;DHT22;32646;50.958;6.258;2023-04-06T09:44:10;11.80;74.60
46898;DHT22;32646;50.958;6.258;2023-04-06T09:46:39;11.90;77.70
46898;DHT22;32646;50.958;6.258;2023-04-06T09:49:28;11.80;78.70
46898;DHT22;32646;50.958;6.258;2023-04-06T09:52:02;11.80;80.00
46898;DHT22;32646;50.958;6.258;2023-04-06T09:54:30;11.90;79.20
46898;DHT22;32646;50.958;6.258;2023-04-06T09:57:19;11.60;79.70
46898;DHT22;32646;50.958;6.258;2023-04-06T10:00:05;11.80;80.40
46898;DHT22;32646;50.958;6.258;2023-04-06T10:05:09;11.60;78.10
46898;DHT22;32646;50.958;6.258;2023-04-06T10:07:36;11.40;78.60
46898;DHT22;32646;50.958;6.258;2023-04-06T10:10:15;11.30;77.20
46898;DHT22;32646;50.958;6.258;2023-04-06T10:12:43;11.30;80.00
46898;DHT22;32646;50.958;6.258;2023-04-06T10:15:10;11.10;77.40
46898;DHT22;32646;50.958;6.258;2023-04-06T10:17:37;11.10;77.70
46898;DHT22;32646;50.958;6.258;2023-04-06T10:20:10;11.10;80.20
46898;DHT22;32646;50.958;6.258;2023-04-06T10:22:44;11.00;78.90
46898;DHT22;32646;50.958;6.258;2023-04-06T10:25:11;11.20;77.20
46898;DHT22;32646;50.958;6.258;2023-04-06T10:27:38;11.20;76.60
46898;DHT22;32646;50.958;6.258;2023-04-06T10:30:06;11.50;76.40
46898;DHT22;32646;50.958;6.258;2023-04-06T10:32:37;11.70;73.40
46898;DHT22;32646;50.958;6.258;2023-04-06T10:35:11;12.20;73.00
46898;DHT22;32646;50.958;6.258;2023-04-06T10:37:49;12.10;71.80
46898;DHT22;32646;50.958;6.258;2023-04-06T10:40:20;12.30;72.50
46898;DHT22;32646;50.958;6.258;2023-04-06T10:42:48;12.50;72.50
46898;DHT22;32646;50.958;6.258;2023-04-06T10:45:25;12.90;73.90
46898;DHT22;32646;50.958;6.258;2023-04-06T10:47:53;13.50;69.80
46898;DHT22;32646;50.958;6.258;2023-04-06T10:50:20;13.30;72.40
46898;DHT22;32646;50.958;6.258;2023-04-06T10:52:58;13.30;71.10
46898;DHT22;32646;50.958;6.258;2023-04-06T10:55:26;13.10;77.30
46898;DHT22;32646;50.958;6.258;2023-04-06T10:57:54;12.80;71.30
46898;DHT22;32646;50.958;6.258;2023-04-06T11:00:20;12.40;73.40
46898;DHT22;32646;50.958;6.258;2023-04-06T11:02:47;12.20;73.50
46898;DHT22;32646;50.958;6.258;2023-04-06T11:05:15;12.10;75.20
46898;DHT22;32646;50.958;6.258;2023-04-06T11:07:41;11.80;75.40
46898;DHT22;32646;50.958;6.258;2023-04-06T11:10:08;11.90;80.50
46898;DHT22;32646;50.958;6.258;2023-04-06T11:12:54;11.70;82.60
46898;DHT22;32646;50.958;6.258;2023-04-06T11:15:21;11.40;79.30
46898;DHT22;32646;50.958;6.258;2023-04-06T11:17:48;11.50;81.90
46898;DHT22;32646;50.958;6.258;2023-04-06T11:20:15;11.40;83.50
46898;DHT22;32646;50.958;6.258;2023-04-06T11:22:51;11.60;81.20
46898;DHT22;32646;50.958;6.258;2023-04-06T11:25:18;11.80;79.60
46898;DHT22;32646;50.958;6.258;2023-04-06T11:27:46;11.90;81.80
46898;DHT22;32646;50.958;6.258;2023-04-06T11:30:14;11.80;79.20
46898;DHT22;32646;50.958;6.258;2023-04-06T11:32:42;11.50;77.10
46898;DHT22;32646;50.958;6.258;2023-04-06T11:35:20;11.50;75.80
46898;DHT22;32646;50.958;6.258;2023-04-06T11:37:51;11.50;77.10
46898;DHT22;32646;50.958;6.258;2023-04-06T11:40:22;11.40;76.20
46898;DHT22;32646;50.958;6.258;2023-04-06T11:42:55;11.40;77.20
46898;DHT22;32646;50.958;6.258;2023-04-06T11:45:22;11.50;85.80
46898;DHT22;32646;50.958;6.258;2023-04-06T11:47:57;11.40;85.20
46898;DHT22;32646;50.958;6.258;2023-04-06T11:50:24;11.40;84.60
46898;DHT22;32646;50.958;6.258;2023-04-06T11:53:08;11.40;84.70
46898;DHT22;32646;50.958;6.258;2023-04-06T11:55:38;11.50;87.00
46898;DHT22;32646;50.958;6.258;2023-04-06T11:58:05;11.40;85.10
46898;DHT22;32646;50.958;6.258;2023-04-06T12:00:31;11.10;90.00
46898;DHT22;32646;50.958;6.258;2023-04-06T12:02:58;10.90;91.30
46898;DHT22;32646;50.958;6.258;2023-04-06T12:05:25;10.70;92.70
46898;DHT22;32646;50.958;6.258;2023-04-06T12:07:51;10.60;94.30
46898;DHT22;32646;50.958;6.258;2023-04-06T12:10:18;10.40;95.30
46898;DHT22;32646;50.958;6.258;2023-04-06T12:12:45;10.30;92.50
46898;DHT22;32646;50.958;6.258;2023-04-06T12:15:11;10.10;99.90
46898;DHT22;32646;50.958;6.258;2023-04-06T12:17:38;10.00;96.30
46898;DHT22;32646;50.958;6.258;2023-04-06T12:20:05;9.80;99.10
46898;DHT22;32646;50.958;6.258;2023-04-06T12:22:50;9.70;99.90
46898;DHT22;32646;50.958;6.258;2023-04-06T12:25:17;9.70;99.90
46898;DHT22;32646;50.958;6.258;2023-04-06T12:27:43;9.70;99.60
46898;DHT22;32646;50.958;6.258;2023-04-06T12:30:10;9.70;99.90
46898;DHT22;32646;50.958;6.258;2023-04-06T12:32:37;9.80;99.90
46898;DHT22;32646;50.958;6.258;2023-04-06T12:35:03;9.80;99.90
46898;DHT22;32646;50.958;6.258;2023-04-06T12:37:30;9.70;99.90
46898;DHT22;32646;50.958;6.258;2023-04-06T12:39:57;9.80;99.90
46898;DHT22;32646;50.958;6.258;2023-04-06T12:42:23;9.60;99.90
46898;DHT22;32646;50.958;6.258;2023-04-06T12:44:50;9.60;99.90
46898;DHT22;32646;50.958;6.258;2023-04-06T12:47:16;9.60;99.60
46898;DHT22;32646;50.958;6.258;2023-04-06T12:49:43;9.60;99.90
46898;DHT22;32646;50.958;6.258;2023-04-06T12:52:10;9.50;99.90
46898;DHT22;32646;50.958;6.258;2023-04-06T12:54:36;9.40;99.90
46898;DHT22;32646;50.958;6.258;2023-04-06T12:57:03;9.30;99.90
46898;DHT22;32646;50.958;6.258;2023-04-06T12:59:30;9.30;99.90
46898;DHT22;32646;50.958;6.258;2023-04-06T13:01:56;9.50;99.90
46898;DHT22;32646;50.958;6.258;2023-04-06T13:04:23;9.40;99.90
46898;DHT22;32646;50.958;6.258;2023-04-06T13:06:49;9.40;99.90
46898;DHT22;32646;50.958;6.258;2023-04-06T13:09:16;9.30;99.90
46898;DHT22;32646;50.958;6.258;2023-04-06T13:11:42;9.30;99.90
46898;DHT22;32646;50.958;6.258;2023-04-06T13:14:09;9.30;99.90
46898;DHT22;32646;50.958;6.258;2023-04-06T13:16:36;9.10;99.90
46898;DHT22;32646;50.958;6.258;2023-04-06T13:19:02;9.10;99.90
46898;DHT22;32646;50.958;6.258;2023-04-06T13:21:29;8.90;99.90
46898;DHT22;32646;50.958;6.258;2023-04-06T13:23:55;8.80;99.90
46898;DHT22;32646;50.958;6.258;2023-04-06T13:26:22;8.70;99.90
46898;DHT22;32646;50.958;6.258;2023-04-06T13:28:49;8.40;99.90
46898;DHT22;32646;50.958;6.258;2023-04-06T13:31:15;8.10;99.90
46898;DHT22;32646;50.958;6.258;2023-04-06T13:33:42;8.10;99.90
46898;DHT22;32646;50.958;6.258;2023-04-06T13:36:08;8.00;99.90
46898;DHT22;32646;50.958;6.258;2023-04-06T13:38:35;7.90;99.90
46898;DHT22;32646;50.958;6.258;2023-04-06T13:41:02;8.00;99.90
46898;DHT22;32646;50.958;6.258;2023-04-06T13:43:28;8.00;99.90
46898;DHT22;32646;50.958;6.258;2023-04-06T13:45:55;8.00;99.90
46898;DHT22;32646;50.958;6.258;2023-04-06T13:48:22;7.90;99.90
46898;DHT22;32646;50.958;6.258;2023-04-06T13:50:48;7.90;99.90
46898;DHT22;32646;50.958;6.258;2023-04-06T13:53:15;7.80;99.90
46898;DHT22;32646;50.958;6.258;2023-04-06T13:55:41;7.80;99.90
46898;DHT22;32646;50.958;6.258;2023-04-06T13:58:08;7.90;99.90
46898;DHT22;32646;50.958;6.258;2023-04-06T14:00:35;7.90;99.90
46898;DHT22;32646;50.958;6.258;2023-04-06T14:03:02;7.80;99.90
46898;DHT22;32646;50.958;6.258;2023-04-06T14:05:32;7.90;99.90
46898;DHT22;32646;50.958;6.258;2023-04-06T14:07:59;7.90;99.90
46898;DHT22;32646;50.958;6.258;2023-04-06T14:10:26;7.90;99.90
46898;DHT22;32646;50.958;6.258;2023-04-06T14:12:52;7.90;99.90
46898;DHT22;32646;50.958;6.258;2023-04-06T14:15:19;7.90;99.90
46898;DHT22;32646;50.958;6.258;2023-04-06T14:17:45;7.80;99.90
46898;DHT22;32646;50.958;6.258;2023-04-06T14:20:12;7.80;99.90
46898;DHT22;32646;50.958;6.258;2023-04-06T14:22:38;7.90;99.90
46898;DHT22;32646;50.958;6.258;2023-04-06T14:25:05;7.80;99.90
46898;DHT22;32646;50.958;6.258;2023-04-06T14:27:32;7.80;99.90
46898;DHT22;32646;50.958;6.258;2023-04-06T14:29:58;7.90;99.90
46898;DHT22;32646;50.958;6.258;2023-04-06T14:32:25;7.90;99.90
46898;DHT22;32646;50.958;6.258;2023-04-06T14:34:52;7.90;99.90
46898;DHT22;32646;50.958;6.258;2023-04-06T14:37:18;7.70;99.90
46898;DHT22;32646;50.958;6.258;2023-04-06T14:39:45;7.70;99.90
46898;DHT22;32646;50.958;6.258;2023-04-06T14:42:11;7.70;99.90
46898;DHT22;32646;50.958;6.258;2023-04-06T14:44:38;7.80;99.90
46898;DHT22;32646;50.958;6.258;2023-04-06T14:47:04;7.80;99.90
46898;DHT22;32646;50.958;6.258;2023-04-06T14:49:32;7.80;99.90
46898;DHT22;32646;50.958;6.258;2023-04-06T14:51:59;7.80;99.90
46898;DHT22;32646;50.958;6.258;2023-04-06T14:54:26;7.80;99.90
46898;DHT22;32646;50.958;6.258;2023-04-06T14:56:52;7.80;99.90
46898;DHT22;32646;50.958;6.258;2023-04-06T14:59:19;7.80;99.90
46898;DHT22;32646;50.958;6.258;2023-04-06T15:01:45;7.90;99.90
46898;DHT22;32646;50.958;6.258;2023-04-06T15:04:12;7.80;99.90
46898;DHT22;32646;50.958;6.258;2023-04-06T15:06:39;7.80;99.90
46898;DHT22;32646;50.958;6.258;2023-04-06T15:09:05;7.80;99.90
46898;DHT22;32646;50.958;6.258;2023-04-06T15:11:32;7.70;99.90
46898;DHT22;32646;50.958;6.258;2023-04-06T15:14:00;7.70;99.90
46898;DHT22;32646;50.958;6.258;2023-04-06T15:16:27;7.70;99.90
46898;DHT22;32646;50.958;6.258;2023-04-06T15:18:53;7.70;99.90
46898;DHT22;32646;50.958;6.258;2023-04-06T15:21:20;7.70;99.90
46898;DHT22;32646;50.958;6.258;2023-04-06T15:23:46;7.70;99.90
46898;DHT22;32646;50.958;6.258;2023-04-06T15:26:13;7.70;99.90
46898;DHT22;32646;50.958;6.258;2023-04-06T15:28:39;7.60;99.90
46898;DHT22;32646;50.958;6.258;2023-04-06T15:31:13;7.60;99.90
46898;DHT22;32646;50.958;6.258;2023-04-06T15:33:49;7.60;99.90
46898;DHT22;32646;50.958;6.258;2023-04-06T15:36:27;7.60;99.90
46898;DHT22;32646;50.958;6.258;2023-04-06T15:38:55;7.50;99.90
46898;DHT22;32646;50.958;6.258;2023-04-06T15:41:22;7.50;99.90
46898;DHT22;32646;50.958;6.258;2023-04-06T15:43:48;7.50;99.90